Algoma, Wisconsin
Current Conditions -  °F | °C
As of 10:15 AM on Wednesday 28 Jan 2015 (Local Time) from KSUE Reporting Station
Overcast Overcast  
Wind Chill: -8°   Ceiling: 10000
Heat Index: -3°   Visibility: 10mi
Dew Point: -7°   Wind: 9mph
Humidity: 74%   Direction: 190°S
Pressure: 30.23"   Gusts: NA
Location:  44.61°N, 87.43°W
Report Text: KSUE 281615Z AUTO 19008KT 10SM BKN100 OVC120 M03/M07 A3023 RMK AO1
Loading
Personal Weather Stations






























Interactive Weather Map New forecast layout! Learn more

10-Day Weather Forecast

Advertisements
Track Severe Weather on mobile